Kuo Long — VRQF2 — position and weather

sailwx.info

Track history (hours):
 
Tides and Currents Weather Stations Pressure Air Temp Water Temp Dewpoint Dewpoint Depression Visibility Wind Speed Wind Dir Waves Ship Positions

Kuo Long

Last reported at 2017-Nov-17 11:01 UTC. Time now 2017-Nov-21 11:40 UTC.
Position N 21°59' E 114°20'.

Length 170 m; draft 9.1 m.

Type: Ship (hazmat cat A). MMSI: 477884200.

Date/timePositionNaut miles runAvg speedWind from/ knotsBaromVisibWave heightAir tempDewpointWater temp
2017-Nov-17 11:01N 21°59' E 114°20'016.8
2017-Nov-17 11:00N 21°60' E 114°20'912.5
2017-Nov-17 10:19N 22°07' E 114°15'813.4
2017-Nov-17 09:45N 22°13' E 114°10'3 9.7
2017-Nov-17 09:29N 22°14' E 114°08'6 3.3
2017-Nov-17 07:48N 22°20' E 114°08'0 0.0
2017-Nov-17 00:57N 22°20' E 114°08'0 0.0
2017-Nov-16 22:24N 22°20' E 114°08'15 7.1
2017-Nov-16 20:22N 22°08' E 114°17'614.4
2017-Nov-16 19:59N 22°08' E 114°23'715.2
2017-Nov-16 19:30N 22°08' E 114°31'815.7
2017-Nov-16 19:00N 22°08' E 114°39'816.6
2017-Nov-16 18:30N 22°09' E 114°48'917.3
2017-Nov-16 18:00N 22°09' E 114°58'917.3
2017-Nov-16 17:30N 22°10' E 115°07'917.0
2017-Nov-16 16:57N 22°11' E 115°17'1116.7
2017-Nov-16 16:20N 22°12' E 115°28'716.9
2017-Nov-16 15:53N 22°12' E 115°36'23817.2
2017-Nov-16 02:05N 22°31' E 119°53'217.5
2017-Nov-16 02:00N 22°31' E 119°54'917.9
2017-Nov-16 01:30N 22°32' E 120°04'917.9
2017-Nov-16 01:00N 22°33' E 120°13'611.5
2017-Nov-16 00:31N 22°33' E 120°19'1 1.2
2017-Nov-15 23:58N 22°34' E 120°19'0 0.0
2017-Nov-15 23:28N 22°34' E 120°19'0 0.0
2017-Nov-15 22:52N 22°34' E 120°19'0 0.0
2017-Nov-15 22:28N 22°34' E 120°19'0 0.0
2017-Nov-15 21:55N 22°34' E 120°19'0 0.0
2017-Nov-15 21:16N 22°34' E 120°19'0 0.0
2017-Nov-15 20:58N 22°34' E 120°19'0 0.0
2017-Nov-15 20:19N 22°34' E 120°19'0 0.0
2017-Nov-15 19:58N 22°34' E 120°19'0 0.0
2017-Nov-15 19:28N 22°34' E 120°19'0 0.0
2017-Nov-15 18:37N 22°34' E 120°19'0 0.0
2017-Nov-15 17:40N 22°34' E 120°19'0 0.0
2017-Nov-15 17:13N 22°34' E 120°19'0 0.0
2017-Nov-15 16:55N 22°34' E 120°19'0 0.0
2017-Nov-15 16:19N 22°34' E 120°19'0 0.0
2017-Nov-15 15:40N 22°34' E 120°19'0 0.0
2017-Nov-15 15:28N 22°34' E 120°19'0 0.0
2017-Nov-15 14:58N 22°34' E 120°19'0 0.0
2017-Nov-15 14:28N 22°34' E 120°19'0 0.0
2017-Nov-15 13:43N 22°34' E 120°19'0 0.0
2017-Nov-15 13:28N 22°34' E 120°19'0 0.0
2017-Nov-15 12:59N 22°34' E 120°19'3 6.3
2017-Nov-15 12:30N 22°32' E 120°16'2 3.3
2017-Nov-15 12:00N 22°32' E 120°14'3 5.9
2017-Nov-15 11:30N 22°33' E 120°12'4 8.5
2017-Nov-15 11:00N 22°37' E 120°09'610.6
2017-Nov-15 10:29N 22°42' E 120°06'613.2
2017-Nov-15 10:00N 22°48' E 120°04'  
2017-Nov-11 18:33N 33°57' E 134°54'117.8
2017-Nov-11 18:30N 33°57' E 134°54'917.4
2017-Nov-11 18:00N 34°06' E 134°56'816.7
2017-Nov-11 17:30N 34°14' E 134°58'815.9
2017-Nov-11 16:59N 34°22' E 135°00'817.8
2017-Nov-11 16:31N 34°28' E 135°08'917.6
2017-Nov-11 16:01N 34°35' E 135°15'510.2
2017-Nov-11 15:30N 34°40' E 135°14'0 0.2
2017-Nov-11 14:51N 34°40' E 135°14'0 0.0
2017-Nov-11 14:27N 34°40' E 135°14'0 0.0
2017-Nov-11 13:39N 34°40' E 135°14'0 0.0
2017-Nov-11 13:27N 34°40' E 135°14'0 0.0
2017-Nov-11 12:57N 34°40' E 135°14'0 0.0
2017-Nov-11 12:27N 34°40' E 135°14'0 0.0
2017-Nov-11 11:51N 34°40' E 135°14'0 0.0
2017-Nov-11 11:27N 34°40' E 135°14'0 0.0
2017-Nov-11 10:57N 34°40' E 135°14'0 0.0
2017-Nov-11 10:27N 34°40' E 135°14'0 0.0
2017-Nov-11 09:57N 34°40' E 135°14'0 0.0
2017-Nov-11 09:27N 34°40' E 135°14'0 0.0
2017-Nov-11 08:57N 34°40' E 135°14'0 0.0
2017-Nov-11 08:27N 34°40' E 135°14'0 0.0
2017-Nov-11 07:57N 34°40' E 135°14'0 0.0
2017-Nov-11 07:27N 34°40' E 135°14'1 1.3
2017-Nov-11 07:00N 34°40' E 135°15'4 8.0
2017-Nov-11 06:30N 34°38' E 135°19'4 7.7
2017-Nov-11 06:00N 34°39' E 135°24'0 0.2
2017-Nov-11 05:27N 34°39' E 135°24'0 0.0
2017-Nov-11 04:57N 34°39' E 135°24'0 0.0
2017-Nov-11 04:27N 34°39' E 135°24'0 0.0
2017-Nov-11 03:51N 34°39' E 135°24'0 0.0
2017-Nov-11 03:27N 34°39' E 135°24'0 0.0
2017-Nov-11 02:51N 34°39' E 135°24'0 0.0
2017-Nov-11 02:27N 34°39' E 135°24'0 0.0
2017-Nov-11 01:57N 34°39' E 135°24'0 0.0
2017-Nov-11 01:27N 34°39' E 135°24'0 0.0
2017-Nov-11 00:57N 34°39' E 135°24'0 0.0
2017-Nov-11 00:27N 34°39' E 135°24'0 0.0
2017-Nov-10 23:57N 34°39' E 135°24'0 0.0
2017-Nov-10 23:27N 34°39' E 135°24'0 0.2
2017-Nov-10 23:00N 34°39' E 135°24'5 9.8
2017-Nov-10 22:30N 34°35' E 135°20'916.5
2017-Nov-10 21:58N 34°29' E 135°12'817.7
2017-Nov-10 21:30N 34°23' E 135°05'817.0
2017-Nov-10 21:00N 34°16' E 134°59'713.5
2017-Nov-10 20:30N 34°09' E 135°00'612.9
2017-Nov-10 20:00N 34°03' E 134°60'714.8
2017-Nov-10 19:30N 33°56' E 134°59'  
2017-Nov-08 13:51N 35°02' E 139°37'717.9
2017-Nov-08 13:30N 35°06' E 139°43'714.0
2017-Nov-08 13:01N 35°13' E 139°46'612.3
2017-Nov-08 12:31N 35°18' E 139°44'713.2
2017-Nov-08 12:01N 35°25' E 139°44'815.2
2017-Nov-08 11:31N 35°30' E 139°51'612.9
2017-Nov-08 11:00N 35°36' E 139°47'2 0.3
2017-Nov-08 04:09N 35°37' E 139°46'0 0.0
2017-Nov-08 03:57N 35°37' E 139°46'0 0.0
2017-Nov-08 02:36N 35°37' E 139°46'0 0.0
2017-Nov-08 02:21N 35°37' E 139°46'0 0.0
2017-Nov-08 00:57N 35°37' E 139°46'0 0.0
2017-Nov-07 21:58N 35°37' E 139°46'3 5.1
2017-Nov-07 21:28N 35°35' E 139°48'3 6.8
2017-Nov-07 21:01N 35°34' E 139°51'0 0.2
2017-Nov-07 20:31N 35°34' E 139°51'0 0.0
2017-Nov-07 20:00N 35°34' E 139°51'0 0.3
2017-Nov-07 19:30N 35°34' E 139°51'0 0.2
2017-Nov-07 19:00N 35°34' E 139°51'0 0.1
2017-Nov-07 18:29N 35°34' E 139°51'0 0.1
2017-Nov-07 17:56N 35°34' E 139°51'0 0.2
2017-Nov-07 17:29N 35°34' E 139°51'0 0.1
2017-Nov-07 17:00N 35°34' E 139°51'0 0.0
2017-Nov-07 16:31N 35°34' E 139°51'0 0.0
2017-Nov-07 16:01N 35°34' E 139°51'1 2.3
2017-Nov-07 15:24N 35°33' E 139°52'410.8
2017-Nov-07 15:01N 35°29' E 139°52'612.1
2017-Nov-07 14:30N 35°26' E 139°45'3 5.9
2017-Nov-07 14:00N 35°27' E 139°41'0 0.6
2017-Nov-07 13:30N 35°26' E 139°41'0 0.0
2017-Nov-07 13:00N 35°26' E 139°41'0 0.0
2017-Nov-07 12:30N 35°26' E 139°41'0 0.0
2017-Nov-07 12:00N 35°26' E 139°41'0 0.0
2017-Nov-07 11:24N 35°26' E 139°41'  
Track history (hours):
 
Tides and Currents Weather Stations Pressure Air Temp Water Temp Dewpoint Dewpoint Depression Visibility Wind Speed Wind Dir Waves Ship Positions

Kuo Long

Last reported at 2017-Nov-17 11:01 UTC. Time now 2017-Nov-21 11:40 UTC.
Position N 21°59' E 114°20'.

Length 170 m; draft 9.1 m.

Type: Ship (hazmat cat A). MMSI: 477884200.

Date/timePositionNaut miles runAvg speedWind from/ knotsBaromVisibWave heightAir tempDewpointWater temp
2017-Nov-17 11:01N 21°59' E 114°20'016.8
2017-Nov-17 11:00N 21°60' E 114°20'912.5
2017-Nov-17 10:19N 22°07' E 114°15'813.4
2017-Nov-17 09:45N 22°13' E 114°10'3 9.7
2017-Nov-17 09:29N 22°14' E 114°08'6 3.3
2017-Nov-17 07:48N 22°20' E 114°08'0 0.0
2017-Nov-17 00:57N 22°20' E 114°08'0 0.0
2017-Nov-16 22:24N 22°20' E 114°08'15 7.1
2017-Nov-16 20:22N 22°08' E 114°17'614.4
2017-Nov-16 19:59N 22°08' E 114°23'715.2
2017-Nov-16 19:30N 22°08' E 114°31'815.7
2017-Nov-16 19:00N 22°08' E 114°39'816.6
2017-Nov-16 18:30N 22°09' E 114°48'917.3
2017-Nov-16 18:00N 22°09' E 114°58'917.3
2017-Nov-16 17:30N 22°10' E 115°07'917.0
2017-Nov-16 16:57N 22°11' E 115°17'1116.7
2017-Nov-16 16:20N 22°12' E 115°28'716.9
2017-Nov-16 15:53N 22°12' E 115°36'23817.2
2017-Nov-16 02:05N 22°31' E 119°53'217.5
2017-Nov-16 02:00N 22°31' E 119°54'917.9
2017-Nov-16 01:30N 22°32' E 120°04'917.9
2017-Nov-16 01:00N 22°33' E 120°13'611.5
2017-Nov-16 00:31N 22°33' E 120°19'1 1.2
2017-Nov-15 23:58N 22°34' E 120°19'0 0.0
2017-Nov-15 23:28N 22°34' E 120°19'0 0.0
2017-Nov-15 22:52N 22°34' E 120°19'0 0.0
2017-Nov-15 22:28N 22°34' E 120°19'0 0.0
2017-Nov-15 21:55N 22°34' E 120°19'0 0.0
2017-Nov-15 21:16N 22°34' E 120°19'0 0.0
2017-Nov-15 20:58N 22°34' E 120°19'0 0.0
2017-Nov-15 20:19N 22°34' E 120°19'0 0.0
2017-Nov-15 19:58N 22°34' E 120°19'0 0.0
2017-Nov-15 19:28N 22°34' E 120°19'0 0.0
2017-Nov-15 18:37N 22°34' E 120°19'0 0.0
2017-Nov-15 17:40N 22°34' E 120°19'0 0.0
2017-Nov-15 17:13N 22°34' E 120°19'0 0.0
2017-Nov-15 16:55N 22°34' E 120°19'0 0.0
2017-Nov-15 16:19N 22°34' E 120°19'0 0.0
2017-Nov-15 15:40N 22°34' E 120°19'0 0.0
2017-Nov-15 15:28N 22°34' E 120°19'0 0.0
2017-Nov-15 14:58N 22°34' E 120°19'0 0.0
2017-Nov-15 14:28N 22°34' E 120°19'0 0.0
2017-Nov-15 13:43N 22°34' E 120°19'0 0.0
2017-Nov-15 13:28N 22°34' E 120°19'0 0.0
2017-Nov-15 12:59N 22°34' E 120°19'3 6.3
2017-Nov-15 12:30N 22°32' E 120°16'2 3.3
2017-Nov-15 12:00N 22°32' E 120°14'3 5.9
2017-Nov-15 11:30N 22°33' E 120°12'4 8.5
2017-Nov-15 11:00N 22°37' E 120°09'610.6
2017-Nov-15 10:29N 22°42' E 120°06'613.2
2017-Nov-15 10:00N 22°48' E 120°04'  
2017-Nov-11 18:33N 33°57' E 134°54'117.8
2017-Nov-11 18:30N 33°57' E 134°54'917.4
2017-Nov-11 18:00N 34°06' E 134°56'816.7
2017-Nov-11 17:30N 34°14' E 134°58'815.9
2017-Nov-11 16:59N 34°22' E 135°00'817.8
2017-Nov-11 16:31N 34°28' E 135°08'917.6
2017-Nov-11 16:01N 34°35' E 135°15'510.2
2017-Nov-11 15:30N 34°40' E 135°14'0 0.2
2017-Nov-11 14:51N 34°40' E 135°14'0 0.0
2017-Nov-11 14:27N 34°40' E 135°14'0 0.0
2017-Nov-11 13:39N 34°40' E 135°14'0 0.0
2017-Nov-11 13:27N 34°40' E 135°14'0 0.0
2017-Nov-11 12:57N 34°40' E 135°14'0 0.0
2017-Nov-11 12:27N 34°40' E 135°14'0 0.0
2017-Nov-11 11:51N 34°40' E 135°14'0 0.0
2017-Nov-11 11:27N 34°40' E 135°14'0 0.0
2017-Nov-11 10:57N 34°40' E 135°14'0 0.0
2017-Nov-11 10:27N 34°40' E 135°14'0 0.0
2017-Nov-11 09:57N 34°40' E 135°14'0 0.0
2017-Nov-11 09:27N 34°40' E 135°14'0 0.0
2017-Nov-11 08:57N 34°40' E 135°14'0 0.0
2017-Nov-11 08:27N 34°40' E 135°14'0 0.0
2017-Nov-11 07:57N 34°40' E 135°14'0 0.0
2017-Nov-11 07:27N 34°40' E 135°14'1 1.3
2017-Nov-11 07:00N 34°40' E 135°15'4 8.0
2017-Nov-11 06:30N 34°38' E 135°19'4 7.7
2017-Nov-11 06:00N 34°39' E 135°24'0 0.2
2017-Nov-11 05:27N 34°39' E 135°24'0 0.0
2017-Nov-11 04:57N 34°39' E 135°24'0 0.0
2017-Nov-11 04:27N 34°39' E 135°24'0 0.0
2017-Nov-11 03:51N 34°39' E 135°24'0 0.0
2017-Nov-11 03:27N 34°39' E 135°24'0 0.0
2017-Nov-11 02:51N 34°39' E 135°24'0 0.0
2017-Nov-11 02:27N 34°39' E 135°24'0 0.0
2017-Nov-11 01:57N 34°39' E 135°24'0 0.0
2017-Nov-11 01:27N 34°39' E 135°24'0 0.0
2017-Nov-11 00:57N 34°39' E 135°24'0 0.0
2017-Nov-11 00:27N 34°39' E 135°24'0 0.0
2017-Nov-10 23:57N 34°39' E 135°24'0 0.0
2017-Nov-10 23:27N 34°39' E 135°24'0 0.2
2017-Nov-10 23:00N 34°39' E 135°24'5 9.8
2017-Nov-10 22:30N 34°35' E 135°20'916.5
2017-Nov-10 21:58N 34°29' E 135°12'817.7
2017-Nov-10 21:30N 34°23' E 135°05'817.0
2017-Nov-10 21:00N 34°16' E 134°59'713.5
2017-Nov-10 20:30N 34°09' E 135°00'612.9
2017-Nov-10 20:00N 34°03' E 134°60'714.8
2017-Nov-10 19:30N 33°56' E 134°59'  
2017-Nov-08 13:51N 35°02' E 139°37'717.9
2017-Nov-08 13:30N 35°06' E 139°43'714.0
2017-Nov-08 13:01N 35°13' E 139°46'612.3
2017-Nov-08 12:31N 35°18' E 139°44'713.2
2017-Nov-08 12:01N 35°25' E 139°44'815.2
2017-Nov-08 11:31N 35°30' E 139°51'612.9
2017-Nov-08 11:00N 35°36' E 139°47'2 0.3
2017-Nov-08 04:09N 35°37' E 139°46'0 0.0
2017-Nov-08 03:57N 35°37' E 139°46'0 0.0
2017-Nov-08 02:36N 35°37' E 139°46'0 0.0
2017-Nov-08 02:21N 35°37' E 139°46'0 0.0
2017-Nov-08 00:57N 35°37' E 139°46'0 0.0
2017-Nov-07 21:58N 35°37' E 139°46'3 5.1
2017-Nov-07 21:28N 35°35' E 139°48'3 6.8
2017-Nov-07 21:01N 35°34' E 139°51'0 0.2
2017-Nov-07 20:31N 35°34' E 139°51'0 0.0
2017-Nov-07 20:00N 35°34' E 139°51'0 0.3
2017-Nov-07 19:30N 35°34' E 139°51'0 0.2
2017-Nov-07 19:00N 35°34' E 139°51'0 0.1
2017-Nov-07 18:29N 35°34' E 139°51'0 0.1
2017-Nov-07 17:56N 35°34' E 139°51'0 0.2
2017-Nov-07 17:29N 35°34' E 139°51'0 0.1
2017-Nov-07 17:00N 35°34' E 139°51'0 0.0
2017-Nov-07 16:31N 35°34' E 139°51'0 0.0
2017-Nov-07 16:01N 35°34' E 139°51'1 2.3
2017-Nov-07 15:24N 35°33' E 139°52'410.8
2017-Nov-07 15:01N 35°29' E 139°52'612.1
2017-Nov-07 14:30N 35°26' E 139°45'3 5.9
2017-Nov-07 14:00N 35°27' E 139°41'0 0.6
2017-Nov-07 13:30N 35°26' E 139°41'0 0.0
2017-Nov-07 13:00N 35°26' E 139°41'0 0.0
2017-Nov-07 12:30N 35°26' E 139°41'0 0.0
2017-Nov-07 12:00N 35°26' E 139°41'0 0.0
2017-Nov-07 11:24N 35°26' E 139°41'  

Dump ship's entire track history